createdAt,value
2022-09-27T00:01:41.128Z,96932.64
2022-09-27T00:04:44.191Z,96929.70
2022-09-27T00:07:47.083Z,96931.62
2022-09-27T00:10:49.948Z,96931.73
2022-09-27T00:13:55.651Z,96925.06
2022-09-27T00:16:58.556Z,96923.35
2022-09-27T00:20:01.913Z,96918.36
2022-09-27T00:23:04.804Z,96913.00
2022-09-27T00:26:10.732Z,96904.72
2022-09-27T00:29:15.313Z,96897.54
2022-09-27T00:32:18.597Z,96890.40
2022-09-27T00:35:21.432Z,96889.65
2022-09-27T00:38:24.540Z,96892.04
2022-09-27T00:41:34.090Z,96892.38
2022-09-27T00:44:39.910Z,96893.37
2022-09-27T00:47:56.471Z,96890.35
2022-09-27T00:51:03.787Z,96888.27
2022-09-27T00:54:10.216Z,96882.35
2022-09-27T00:57:13.397Z,96882.16
2022-09-27T01:00:17.153Z,96882.80
2022-09-27T01:03:33.125Z,96872.60
2022-09-27T01:06:36.227Z,96871.83
2022-09-27T01:09:39.635Z,96868.95
2022-09-27T01:12:57.981Z,96863.94
2022-09-27T01:16:11.465Z,96854.81
2022-09-27T01:19:48.144Z,96853.03
2022-09-27T01:23:15.947Z,96849.38
2022-09-27T01:26:25.085Z,96839.30
2022-09-27T01:29:28.238Z,96840.88
2022-09-27T01:32:40.801Z,96834.09
2022-09-27T01:36:06.173Z,96827.38
2022-09-27T01:39:38.457Z,96824.81
2022-09-27T01:43:18.043Z,96819.55
2022-09-27T01:46:26.041Z,96816.83
2022-09-27T01:49:58.226Z,96807.56
2022-09-27T01:53:09.872Z,96804.45
2022-09-27T01:56:33.265Z,96801.89
2022-09-27T01:59:50.807Z,96798.48
2022-09-27T02:03:19.396Z,96796.45
2022-09-27T02:06:46.926Z,96790.84
2022-09-27T02:10:02.754Z,96789.12
2022-09-27T02:13:30.840Z,96792.23
2022-09-27T02:16:48.884Z,96786.03
2022-09-27T02:19:58.248Z,96787.09
2022-09-27T02:23:22.946Z,96784.90
2022-09-27T02:26:43.890Z,96782.09
2022-09-27T02:29:54.568Z,96781.52
2022-09-27T02:32:57.481Z,96773.52
2022-09-27T02:36:00.392Z,96767.95
2022-09-27T02:39:04.573Z,96758.10
2022-09-27T02:42:07.856Z,96757.61
2022-09-27T02:45:13.905Z,96753.26
2022-09-27T02:48:38.073Z,96754.93
2022-09-27T02:52:00.528Z,96749.02
2022-09-27T02:55:10.022Z,96742.20
2022-09-27T02:58:54.910Z,96744.63
2022-09-27T03:02:15.545Z,96744.56
2022-09-27T03:05:45.789Z,96744.70
2022-09-27T03:08:50.387Z,96744.80
2022-09-27T03:11:53.652Z,96742.70
2022-09-27T03:14:58.614Z,96744.46
2022-09-27T03:18:30.457Z,96739.45
2022-09-27T03:21:33.401Z,96742.80
2022-09-27T03:24:36.604Z,96737.98
2022-09-27T03:27:39.525Z,96731.70
2022-09-27T03:30:42.744Z,96727.32
2022-09-27T03:33:45.902Z,96728.14
2022-09-27T03:36:49.488Z,96727.77
2022-09-27T03:39:52.264Z,96728.77
2022-09-27T03:42:55.492Z,96724.70
2022-09-27T03:45:59.049Z,96722.14
2022-09-27T03:49:02.047Z,96720.14
2022-09-27T03:52:04.907Z,96719.42
2022-09-27T03:55:08.060Z,96719.69
2022-09-27T03:58:11.206Z,96720.77
2022-09-27T04:01:15.671Z,96719.11
2022-09-27T04:04:19.559Z,96715.22
2022-09-27T04:07:23.660Z,96709.14
2022-09-27T04:10:26.965Z,96701.81
2022-09-27T04:13:30.094Z,96702.64
2022-09-27T04:16:33.912Z,96695.23
2022-09-27T04:20:06.864Z,96684.72
2022-09-27T04:23:10.374Z,96681.19
2022-09-27T04:26:15.149Z,96686.69
2022-09-27T04:29:24.556Z,96690.27
2022-09-27T04:32:28.439Z,96689.92
2022-09-27T04:36:19.277Z,96687.00
2022-09-27T04:39:40.456Z,96691.60
2022-09-27T04:42:43.508Z,96697.01
2022-09-27T04:45:46.724Z,96692.61
2022-09-27T04:48:49.646Z,96688.98
2022-09-27T04:51:52.482Z,96687.75
2022-09-27T04:54:55.373Z,96685.42
2022-09-27T04:57:58.903Z,96682.73
2022-09-27T05:01:04.352Z,96682.39
2022-09-27T05:04:26.337Z,96678.66
2022-09-27T05:07:29.837Z,96673.85
2022-09-27T05:10:37.088Z,96673.59
2022-09-27T05:13:39.932Z,96674.39
2022-09-27T05:16:42.838Z,96672.30
2022-09-27T05:20:11.600Z,96674.02
2022-09-27T05:23:20.228Z,96671.19
2022-09-27T05:26:23.348Z,96671.88
2022-09-27T05:29:26.422Z,96665.80
2022-09-27T05:32:50.226Z,96667.10
2022-09-27T05:36:02.475Z,96670.63
2022-09-27T05:39:07.217Z,96664.39
2022-09-27T05:42:12.250Z,96660.86
2022-09-27T05:45:15.432Z,96655.89
2022-09-27T05:48:18.406Z,96658.28
2022-09-27T05:51:28.568Z,96664.64
2022-09-27T05:54:31.840Z,96665.39
2022-09-27T05:57:35.481Z,96660.59
2022-09-27T06:00:41.773Z,96654.00
2022-09-27T06:03:55.417Z,96646.54
2022-09-27T06:07:17.581Z,96651.10
2022-09-27T06:10:21.006Z,96650.11
2022-09-27T06:13:24.001Z,96646.83
2022-09-27T06:16:27.868Z,96649.02
2022-09-27T06:19:31.080Z,96645.52
2022-09-27T06:22:34.112Z,96649.71
2022-09-27T06:25:38.524Z,96642.81
2022-09-27T06:28:56.834Z,96646.25
2022-09-27T06:32:01.615Z,96649.88
2022-09-27T06:35:12.971Z,96654.67
2022-09-27T06:38:18.362Z,96654.58
2022-09-27T06:41:28.651Z,96654.89
2022-09-27T06:44:45.827Z,96652.09
2022-09-27T06:48:16.180Z,96646.22
2022-09-27T06:51:34.260Z,96643.51
2022-09-27T06:54:37.483Z,96642.55
2022-09-27T06:57:58.962Z,96640.90
2022-09-27T07:01:02.586Z,96637.41
2022-09-27T07:04:25.137Z,96639.35
2022-09-27T07:07:49.477Z,96640.82
2022-09-27T07:10:53.705Z,96636.00
2022-09-27T07:13:56.838Z,96635.52
2022-09-27T07:16:59.829Z,96641.98
2022-09-27T07:20:07.993Z,96641.61
2022-09-27T07:23:12.492Z,96639.64
2022-09-27T07:26:16.268Z,96643.80
2022-09-27T07:29:19.872Z,96638.27
2022-09-27T07:32:24.449Z,96635.39
2022-09-27T07:35:28.840Z,96633.95
2022-09-27T07:38:32.664Z,96636.58
2022-09-27T07:41:35.562Z,96635.84
2022-09-27T07:44:38.555Z,96634.73
2022-09-27T07:48:06.683Z,96628.36
2022-09-27T07:51:29.999Z,96630.08
2022-09-27T07:54:47.027Z,96630.21
2022-09-27T07:58:14.991Z,96633.50
2022-09-27T08:01:18.432Z,96631.17
2022-09-27T08:04:22.309Z,96627.09
2022-09-27T08:07:25.771Z,96624.60
2022-09-27T08:10:32.493Z,96618.05
2022-09-27T08:13:37.801Z,96610.41
2022-09-27T08:16:42.019Z,96606.04
2022-09-27T08:20:12.380Z,96595.00
2022-09-27T08:23:34.098Z,96593.23
2022-09-27T08:26:56.157Z,96595.71
2022-09-27T08:30:10.835Z,96597.41
2022-09-27T08:33:14.774Z,96600.30
2022-09-27T08:36:17.903Z,96593.92
2022-09-27T08:39:20.960Z,96591.11
2022-09-27T08:42:47.332Z,96591.93
2022-09-27T08:46:34.427Z,96598.48
2022-09-27T08:49:43.918Z,96590.22
2022-09-27T08:52:55.113Z,96584.92
2022-09-27T08:56:03.477Z,96584.48
2022-09-27T08:59:22.141Z,96577.55
2022-09-27T09:02:26.538Z,96580.51
2022-09-27T09:05:35.934Z,96580.26
2022-09-27T09:09:14.259Z,96580.63
2022-09-27T09:12:48.401Z,96573.73
2022-09-27T09:16:16.077Z,96578.13
2022-09-27T09:19:39.381Z,96574.85
2022-09-27T09:23:11.702Z,96574.43
2022-09-27T09:26:32.134Z,96573.42
2022-09-27T09:30:05.398Z,96567.02
2022-09-27T09:33:30.059Z,96564.24
2022-09-27T09:36:39.067Z,96551.67
2022-09-27T09:39:44.537Z,96554.41
2022-09-27T09:42:54.731Z,96548.67
2022-09-27T09:46:07.553Z,96544.34
2022-09-27T09:49:37.278Z,96536.14
2022-09-27T09:52:44.934Z,96532.56
2022-09-27T09:55:57.922Z,96529.48
2022-09-27T09:59:22.838Z,96528.42
2022-09-27T10:02:43.155Z,96511.69
2022-09-27T10:05:49.269Z,96505.48
2022-09-27T10:08:54.937Z,96504.05
2022-09-27T10:12:10.184Z,96504.01
2022-09-27T10:15:22.752Z,96502.44
2022-09-27T10:18:28.398Z,96494.67
2022-09-27T10:21:33.884Z,96492.75
2022-09-27T10:25:03.469Z,96485.50
2022-09-27T10:28:48.087Z,96486.08
2022-09-27T10:31:53.985Z,96480.41
2022-09-27T10:35:36.918Z,96482.73
2022-09-27T10:38:51.675Z,96482.58
2022-09-27T10:41:59.898Z,96482.93
2022-09-27T10:45:29.514Z,96477.79
2022-09-27T10:48:37.799Z,96476.52
2022-09-27T10:51:40.954Z,96472.61
2022-09-27T10:54:55.057Z,96475.08
2022-09-27T10:57:58.139Z,96472.32
2022-09-27T11:01:12.645Z,96469.93
2022-09-27T11:04:38.605Z,96468.42
2022-09-27T11:07:50.685Z,96469.50
2022-09-27T11:11:13.861Z,96464.88
2022-09-27T11:14:19.929Z,96463.09
2022-09-27T11:17:32.630Z,96455.85
2022-09-27T11:21:01.670Z,96456.16
2022-09-27T11:24:15.604Z,96450.94
2022-09-27T11:27:41.829Z,96449.68
2022-09-27T11:31:08.605Z,96448.30
2022-09-27T11:34:57.690Z,96444.79
2022-09-27T11:38:48.024Z,96442.50
2022-09-27T11:42:16.527Z,96436.76
2022-09-27T11:46:23.904Z,96439.78
2022-09-27T11:49:42.782Z,96429.09
2022-09-27T11:52:59.813Z,96423.66
2022-09-27T11:56:34.104Z,96422.45
2022-09-27T11:59:43.688Z,96424.12
2022-09-27T12:03:08.585Z,96418.59
2022-09-27T12:06:13.448Z,96413.29
2022-09-27T12:09:22.486Z,96413.20
2022-09-27T12:12:31.639Z,96406.94
2022-09-27T12:15:40.475Z,96410.70
2022-09-27T12:18:51.341Z,96406.67
2022-09-27T12:22:53.934Z,96410.92
2022-09-27T12:25:58.069Z,96407.46
2022-09-27T12:29:15.388Z,96405.40
2022-09-27T12:32:32.831Z,96399.27
2022-09-27T12:35:45.131Z,96400.11
2022-09-27T12:39:01.961Z,96398.86
2022-09-27T12:42:17.953Z,96391.95
2022-09-27T12:45:37.484Z,96396.14
2022-09-27T12:49:10.265Z,96395.56
2022-09-27T12:52:23.487Z,96394.17
2022-09-27T12:56:10.694Z,96395.41
2022-09-27T12:59:17.619Z,96397.77
2022-09-27T13:03:04.003Z,96398.94
2022-09-27T13:06:23.783Z,96396.06
2022-09-27T13:09:50.843Z,96395.08
2022-09-27T13:12:55.706Z,96400.25
2022-09-27T13:16:01.406Z,96405.05
2022-09-27T13:19:47.963Z,96403.70
2022-09-27T13:22:51.930Z,96404.05
2022-09-27T13:26:43.372Z,96402.77
2022-09-27T13:30:19.178Z,96397.98
2022-09-27T13:33:28.876Z,96404.20
2022-09-27T13:36:34.670Z,96408.62
2022-09-27T13:39:40.806Z,96409.21
2022-09-27T13:43:13.335Z,96417.90
2022-09-27T13:46:29.641Z,96418.64
2022-09-27T13:49:42.106Z,96417.84
2022-09-27T13:52:55.955Z,96420.61
2022-09-27T13:56:00.481Z,96418.94
2022-09-27T13:59:19.118Z,96413.35
2022-09-27T14:02:36.461Z,96415.88
2022-09-27T14:05:48.803Z,96421.28
2022-09-27T14:08:56.523Z,96430.23
2022-09-27T14:12:08.343Z,96434.45
2022-09-27T14:15:28.572Z,96441.73
2022-09-27T14:18:36.314Z,96450.63
2022-09-27T14:21:40.296Z,96450.84
2022-09-27T14:24:54.012Z,96449.79
2022-09-27T14:28:01.015Z,96452.11
2022-09-27T14:31:23.144Z,96455.19
2022-09-27T14:34:45.881Z,96460.45
2022-09-27T14:37:52.867Z,96464.90
2022-09-27T14:41:00.679Z,96471.61
2022-09-27T14:44:04.437Z,96481.42
2022-09-27T14:47:10.066Z,96484.73
2022-09-27T14:50:29.497Z,96485.92
2022-09-27T14:53:36.718Z,96485.60
2022-09-27T14:56:40.026Z,96479.30
2022-09-27T14:59:46.203Z,96475.04
2022-09-27T15:02:55.446Z,96477.54
2022-09-27T15:06:01.348Z,96472.16
2022-09-27T15:09:07.147Z,96469.33
2022-09-27T15:12:14.345Z,96469.77
2022-09-27T15:15:22.266Z,96467.66
2022-09-27T15:18:33.261Z,96468.98
2022-09-27T15:21:37.663Z,96474.38
2022-09-27T15:24:46.785Z,96473.80
2022-09-27T15:27:55.117Z,96469.89
2022-09-27T15:30:58.736Z,96468.36
2022-09-27T15:34:07.590Z,96467.33
2022-09-27T15:37:24.263Z,96462.65
2022-09-27T15:40:53.083Z,96459.48
2022-09-27T15:43:56.095Z,96462.80
2022-09-27T15:46:58.993Z,96469.63
2022-09-27T15:50:16.854Z,96471.36
2022-09-27T15:53:34.662Z,96460.39
2022-09-27T15:56:40.113Z,96452.56
2022-09-27T15:59:43.442Z,96454.27
2022-09-27T16:02:46.940Z,96457.23
2022-09-27T16:05:49.866Z,96457.86
2022-09-27T16:08:52.800Z,96467.18
2022-09-27T16:11:55.747Z,96478.15
2022-09-27T16:14:58.622Z,96491.81
2022-09-27T16:18:01.634Z,96504.91
2022-09-27T16:21:04.991Z,96498.26
2022-09-27T16:24:12.305Z,96493.17
2022-09-27T16:27:27.478Z,96486.52
2022-09-27T16:30:31.300Z,96488.98
2022-09-27T16:33:41.073Z,96493.34
2022-09-27T16:36:43.998Z,96486.89
2022-09-27T16:39:47.015Z,96482.51
2022-09-27T16:42:50.274Z,96487.24
2022-09-27T16:45:53.242Z,96499.08
2022-09-27T16:48:56.289Z,96505.76
2022-09-27T16:52:03.356Z,96503.45
2022-09-27T16:55:11.028Z,96502.08
2022-09-27T16:58:14.547Z,96502.73
2022-09-27T17:01:17.731Z,96513.42
2022-09-27T17:04:21.047Z,96516.55
2022-09-27T17:07:24.501Z,96516.27
2022-09-27T17:10:27.657Z,96517.02
2022-09-27T17:13:30.575Z,96516.31
2022-09-27T17:16:33.559Z,96517.77
2022-09-27T17:19:39.296Z,96515.85
2022-09-27T17:22:42.257Z,96516.52
2022-09-27T17:25:45.210Z,96519.63
2022-09-27T17:28:50.816Z,96525.45
2022-09-27T17:31:53.882Z,96524.13
2022-09-27T17:35:00.000Z,96521.85
2022-09-27T17:38:03.059Z,96521.02
2022-09-27T17:41:12.096Z,96526.48
2022-09-27T17:44:18.411Z,96520.27
2022-09-27T17:47:40.144Z,96520.52
2022-09-27T17:50:46.850Z,96525.48
2022-09-27T17:53:50.501Z,96521.16
2022-09-27T17:56:54.121Z,96524.02
2022-09-27T17:59:58.061Z,96524.35
2022-09-27T18:03:01.558Z,96518.90
2022-09-27T18:06:10.662Z,96518.29
2022-09-27T18:09:16.564Z,96516.27
2022-09-27T18:12:19.688Z,96525.06
2022-09-27T18:15:23.415Z,96524.90
2022-09-27T18:18:28.002Z,96529.41
2022-09-27T18:21:31.887Z,96534.39
2022-09-27T18:24:34.979Z,96536.91
2022-09-27T18:27:40.517Z,96535.35
2022-09-27T18:30:44.469Z,96541.34
2022-09-27T18:33:48.663Z,96548.24
2022-09-27T18:36:52.021Z,96546.45
2022-09-27T18:39:55.801Z,96548.94
2022-09-27T18:42:58.748Z,96549.11
2022-09-27T18:46:18.072Z,96537.05
2022-09-27T18:49:33.647Z,96542.33
2022-09-27T18:52:37.055Z,96546.83
2022-09-27T18:55:41.706Z,96542.11
2022-09-27T18:58:45.607Z,96539.90
2022-09-27T19:01:48.997Z,96541.39
2022-09-27T19:04:52.301Z,96548.16
2022-09-27T19:07:55.714Z,96550.38
2022-09-27T19:11:10.535Z,96548.73
2022-09-27T19:14:19.664Z,96546.27
2022-09-27T19:17:22.714Z,96541.75
2022-09-27T19:20:25.992Z,96548.36
2022-09-27T19:23:30.024Z,96550.54
2022-09-27T19:26:32.980Z,96554.80
2022-09-27T19:29:37.027Z,96551.14
2022-09-27T19:32:40.154Z,96548.31
2022-09-27T19:35:43.092Z,96549.43
2022-09-27T19:38:47.035Z,96549.96
2022-09-27T19:41:49.933Z,96543.33
2022-09-27T19:44:52.919Z,96542.34
2022-09-27T19:47:56.307Z,96536.16
2022-09-27T19:51:01.589Z,96538.70
2022-09-27T19:54:04.799Z,96545.48
2022-09-27T19:57:07.684Z,96544.74
2022-09-27T20:00:12.027Z,96546.98
2022-09-27T20:03:15.137Z,96550.47
2022-09-27T20:06:20.133Z,96547.67
2022-09-27T20:09:25.258Z,96544.20
2022-09-27T20:12:28.177Z,96544.23
2022-09-27T20:15:31.238Z,96546.73
2022-09-27T20:18:34.765Z,96552.09
2022-09-27T20:21:38.262Z,96558.09
2022-09-27T20:24:41.226Z,96561.46
2022-09-27T20:27:44.256Z,96562.00
2022-09-27T20:30:59.457Z,96564.20
2022-09-27T20:34:03.477Z,96565.34
2022-09-27T20:37:07.589Z,96561.59
2022-09-27T20:40:10.483Z,96572.27
2022-09-27T20:43:13.319Z,96572.42
2022-09-27T20:46:18.309Z,96570.04
2022-09-27T20:49:22.127Z,96570.00
2022-09-27T20:52:24.944Z,96576.09
2022-09-27T20:55:27.800Z,96574.71
2022-09-27T20:58:32.162Z,96573.56
2022-09-27T21:01:35.026Z,96567.36
2022-09-27T21:04:37.944Z,96569.02
2022-09-27T21:07:41.574Z,96584.92
2022-09-27T21:10:47.094Z,96580.22
2022-09-27T21:13:54.522Z,96577.33
2022-09-27T21:17:01.691Z,96574.61
2022-09-27T21:20:05.257Z,96575.27
2022-09-27T21:23:08.213Z,96576.56
2022-09-27T21:26:16.918Z,96571.17
2022-09-27T21:29:21.031Z,96571.70
2022-09-27T21:32:23.935Z,96569.79
2022-09-27T21:35:26.949Z,96579.58
2022-09-27T21:38:31.282Z,96580.52
2022-09-27T21:41:34.779Z,96584.45
2022-09-27T21:44:37.654Z,96586.62
2022-09-27T21:47:40.682Z,96587.75
2022-09-27T21:50:47.101Z,96594.38
2022-09-27T21:53:52.562Z,96595.16
2022-09-27T21:56:55.569Z,96597.05
2022-09-27T21:59:58.495Z,96592.36
2022-09-27T22:03:01.565Z,96589.64
2022-09-27T22:06:06.167Z,96591.71
2022-09-27T22:09:13.746Z,96599.48
2022-09-27T22:12:16.765Z,96602.12
2022-09-27T22:15:19.739Z,96597.77
2022-09-27T22:18:22.833Z,96600.96
2022-09-27T22:21:37.129Z,96603.04
2022-09-27T22:24:39.998Z,96599.64
2022-09-27T22:27:42.970Z,96599.72
2022-09-27T22:30:45.846Z,96598.21
2022-09-27T22:33:57.057Z,96600.73
2022-09-27T22:37:00.932Z,96601.98
2022-09-27T22:40:05.332Z,96601.52
2022-09-27T22:43:08.207Z,96594.48
2022-09-27T22:46:11.409Z,96592.89
2022-09-27T22:49:14.532Z,96590.44
2022-09-27T22:52:17.900Z,96588.98
2022-09-27T22:55:20.742Z,96583.63
2022-09-27T22:58:24.078Z,96580.71
2022-09-27T23:01:26.950Z,96580.29
2022-09-27T23:04:29.782Z,96580.12
2022-09-27T23:07:32.637Z,96581.14
2022-09-27T23:10:36.179Z,96584.89
2022-09-27T23:13:41.414Z,96589.48
2022-09-27T23:16:44.336Z,96591.14
2022-09-27T23:19:47.157Z,96587.77
2022-09-27T23:22:50.303Z,96584.14
2022-09-27T23:26:00.603Z,96580.91
2022-09-27T23:29:03.741Z,96581.52
2022-09-27T23:32:06.632Z,96580.23
2022-09-27T23:35:09.649Z,96584.52
2022-09-27T23:38:14.666Z,96585.17
2022-09-27T23:41:18.695Z,96580.27
2022-09-27T23:44:22.826Z,96583.83
2022-09-27T23:47:25.708Z,96581.49
2022-09-27T23:50:28.535Z,96589.98
2022-09-27T23:53:31.822Z,96592.94
2022-09-27T23:56:34.673Z,96588.96
2022-09-27T23:59:38.499Z,96587.27
